sensor_id;sensor_type;location;lat;lon;timestamp;temperature;humidity
5705;DHT22;2877;48.238;11.160;2023-04-24T00:02:03;9.90;99.90
5705;DHT22;2877;48.238;11.160;2023-04-24T00:04:29;9.90;99.90
5705;DHT22;2877;48.238;11.160;2023-04-24T00:06:57;9.90;99.90
5705;DHT22;2877;48.238;11.160;2023-04-24T00:09:25;9.90;99.90
5705;DHT22;2877;48.238;11.160;2023-04-24T00:11:51;9.90;99.90
5705;DHT22;2877;48.238;11.160;2023-04-24T00:14:17;9.90;99.90
5705;DHT22;2877;48.238;11.160;2023-04-24T00:16:43;9.90;99.90
5705;DHT22;2877;48.238;11.160;2023-04-24T00:19:08;9.90;99.90
5705;DHT22;2877;48.238;11.160;2023-04-24T00:21:34;9.90;99.90
5705;DHT22;2877;48.238;11.160;2023-04-24T00:24:00;9.90;99.90
5705;DHT22;2877;48.238;11.160;2023-04-24T00:26:25;9.90;99.90
5705;DHT22;2877;48.238;11.160;2023-04-24T00:28:51;9.80;99.90
5705;DHT22;2877;48.238;11.160;2023-04-24T00:31:16;9.80;99.90
5705;DHT22;2877;48.238;11.160;2023-04-24T00:33:42;9.80;99.90
5705;DHT22;2877;48.238;11.160;2023-04-24T00:36:08;9.80;99.90
5705;DHT22;2877;48.238;11.160;2023-04-24T00:38:33;9.80;99.90
5705;DHT22;2877;48.238;11.160;2023-04-24T00:40:59;9.70;99.90
5705;DHT22;2877;48.238;11.160;2023-04-24T00:43:25;9.80;99.90
5705;DHT22;2877;48.238;11.160;2023-04-24T00:45:50;9.70;99.90
5705;DHT22;2877;48.238;11.160;2023-04-24T00:48:16;9.60;99.90
5705;DHT22;2877;48.238;11.160;2023-04-24T00:50:42;9.70;99.90
5705;DHT22;2877;48.238;11.160;2023-04-24T00:53:08;9.60;99.90
5705;DHT22;2877;48.238;11.160;2023-04-24T00:55:33;9.70;99.90
5705;DHT22;2877;48.238;11.160;2023-04-24T00:57:59;9.60;99.90
5705;DHT22;2877;48.238;11.160;2023-04-24T01:00:25;9.60;99.90
5705;DHT22;2877;48.238;11.160;2023-04-24T01:02:51;9.50;99.90
5705;DHT22;2877;48.238;11.160;2023-04-24T01:05:17;9.40;99.90
5705;DHT22;2877;48.238;11.160;2023-04-24T01:07:45;9.50;99.90
5705;DHT22;2877;48.238;11.160;2023-04-24T01:10:14;9.50;99.90
5705;DHT22;2877;48.238;11.160;2023-04-24T01:12:40;9.50;99.90
5705;DHT22;2877;48.238;11.160;2023-04-24T01:15:06;9.60;99.90
5705;DHT22;2877;48.238;11.160;2023-04-24T01:17:32;9.60;99.90
5705;DHT22;2877;48.238;11.160;2023-04-24T01:19:59;9.60;99.90
5705;DHT22;2877;48.238;11.160;2023-04-24T01:22:25;9.60;99.90
5705;DHT22;2877;48.238;11.160;2023-04-24T01:24:52;9.50;99.90
5705;DHT22;2877;48.238;11.160;2023-04-24T01:27:19;9.50;99.90
5705;DHT22;2877;48.238;11.160;2023-04-24T01:29:45;9.40;99.90
5705;DHT22;2877;48.238;11.160;2023-04-24T01:32:11;9.40;99.90
5705;DHT22;2877;48.238;11.160;2023-04-24T01:34:37;9.40;99.90
5705;DHT22;2877;48.238;11.160;2023-04-24T01:37:03;9.40;99.90
5705;DHT22;2877;48.238;11.160;2023-04-24T01:39:28;9.40;99.90
5705;DHT22;2877;48.238;11.160;2023-04-24T01:41:55;9.40;99.90
5705;DHT22;2877;48.238;11.160;2023-04-24T01:44:21;9.40;99.90
5705;DHT22;2877;48.238;11.160;2023-04-24T01:46:46;9.30;99.90
5705;DHT22;2877;48.238;11.160;2023-04-24T01:49:12;9.30;99.90
5705;DHT22;2877;48.238;11.160;2023-04-24T01:51:38;9.30;99.90
5705;DHT22;2877;48.238;11.160;2023-04-24T01:54:04;9.40;99.90
5705;DHT22;2877;48.238;11.160;2023-04-24T01:56:31;9.30;99.90
5705;DHT22;2877;48.238;11.160;2023-04-24T01:58:59;9.30;99.90
5705;DHT22;2877;48.238;11.160;2023-04-24T02:01:25;9.30;99.90
5705;DHT22;2877;48.238;11.160;2023-04-24T02:03:51;9.30;99.90
5705;DHT22;2877;48.238;11.160;2023-04-24T02:06:16;9.30;99.90
5705;DHT22;2877;48.238;11.160;2023-04-24T02:08:42;9.30;99.90
5705;DHT22;2877;48.238;11.160;2023-04-24T02:11:10;9.30;99.90
5705;DHT22;2877;48.238;11.160;2023-04-24T02:13:36;9.30;99.90
5705;DHT22;2877;48.238;11.160;2023-04-24T02:16:01;9.40;99.90
5705;DHT22;2877;48.238;11.160;2023-04-24T02:18:27;9.50;99.90
5705;DHT22;2877;48.238;11.160;2023-04-24T02:20:53;9.40;99.90
5705;DHT22;2877;48.238;11.160;2023-04-24T02:23:19;9.30;99.90
5705;DHT22;2877;48.238;11.160;2023-04-24T02:25:44;9.30;99.90
5705;DHT22;2877;48.238;11.160;2023-04-24T02:28:11;9.30;99.90
5705;DHT22;2877;48.238;11.160;2023-04-24T02:30:36;9.40;99.90
5705;DHT22;2877;48.238;11.160;2023-04-24T02:33:02;9.40;99.90
5705;DHT22;2877;48.238;11.160;2023-04-24T02:35:28;9.40;99.90
5705;DHT22;2877;48.238;11.160;2023-04-24T02:37:54;9.30;99.90
5705;DHT22;2877;48.238;11.160;2023-04-24T02:40:19;9.30;99.90
5705;DHT22;2877;48.238;11.160;2023-04-24T02:42:45;9.30;99.90
5705;DHT22;2877;48.238;11.160;2023-04-24T02:45:10;9.20;99.90
5705;DHT22;2877;48.238;11.160;2023-04-24T02:47:36;9.30;99.90
5705;DHT22;2877;48.238;11.160;2023-04-24T02:50:03;9.30;99.90
5705;DHT22;2877;48.238;11.160;2023-04-24T02:52:28;9.30;99.90
5705;DHT22;2877;48.238;11.160;2023-04-24T02:54:54;9.30;99.90
5705;DHT22;2877;48.238;11.160;2023-04-24T02:57:19;9.30;99.90
5705;DHT22;2877;48.238;11.160;2023-04-24T02:59:45;9.20;99.90
5705;DHT22;2877;48.238;11.160;2023-04-24T03:02:10;9.20;99.90
5705;DHT22;2877;48.238;11.160;2023-04-24T03:04:36;9.20;99.90
5705;DHT22;2877;48.238;11.160;2023-04-24T03:07:02;9.20;99.90
5705;DHT22;2877;48.238;11.160;2023-04-24T03:09:27;9.30;99.90
5705;DHT22;2877;48.238;11.160;2023-04-24T03:11:53;9.30;99.90
5705;DHT22;2877;48.238;11.160;2023-04-24T03:14:18;9.20;99.90
5705;DHT22;2877;48.238;11.160;2023-04-24T03:16:44;9.20;99.90
5705;DHT22;2877;48.238;11.160;2023-04-24T03:19:10;9.30;99.90
5705;DHT22;2877;48.238;11.160;2023-04-24T03:21:35;9.20;99.90
5705;DHT22;2877;48.238;11.160;2023-04-24T03:24:06;9.20;99.90
5705;DHT22;2877;48.238;11.160;2023-04-24T03:26:32;9.20;99.90
5705;DHT22;2877;48.238;11.160;2023-04-24T03:28:57;9.30;99.90
5705;DHT22;2877;48.238;11.160;2023-04-24T03:31:23;9.30;99.90
5705;DHT22;2877;48.238;11.160;2023-04-24T03:33:48;9.30;99.90
5705;DHT22;2877;48.238;11.160;2023-04-24T03:36:14;9.30;99.90
5705;DHT22;2877;48.238;11.160;2023-04-24T03:38:39;9.30;99.90
5705;DHT22;2877;48.238;11.160;2023-04-24T03:41:05;9.20;99.90
5705;DHT22;2877;48.238;11.160;2023-04-24T03:43:30;9.20;99.90
5705;DHT22;2877;48.238;11.160;2023-04-24T03:45:58;9.20;99.90
5705;DHT22;2877;48.238;11.160;2023-04-24T03:48:24;9.20;99.90
5705;DHT22;2877;48.238;11.160;2023-04-24T03:50:49;9.10;99.90
5705;DHT22;2877;48.238;11.160;2023-04-24T03:53:15;9.10;99.90
5705;DHT22;2877;48.238;11.160;2023-04-24T03:55:41;9.00;99.90
5705;DHT22;2877;48.238;11.160;2023-04-24T03:58:06;9.00;99.90
5705;DHT22;2877;48.238;11.160;2023-04-24T04:00:32;9.00;99.90
5705;DHT22;2877;48.238;11.160;2023-04-24T04:02:58;9.00;99.90
5705;DHT22;2877;48.238;11.160;2023-04-24T04:05:24;9.00;99.90
5705;DHT22;2877;48.238;11.160;2023-04-24T04:07:49;9.00;99.90
5705;DHT22;2877;48.238;11.160;2023-04-24T04:10:15;9.00;99.90
5705;DHT22;2877;48.238;11.160;2023-04-24T04:12:42;9.00;99.90
5705;DHT22;2877;48.238;11.160;2023-04-24T04:15:08;9.00;99.90
5705;DHT22;2877;48.238;11.160;2023-04-24T04:17:33;9.00;99.90
5705;DHT22;2877;48.238;11.160;2023-04-24T04:19:59;9.00;99.90
5705;DHT22;2877;48.238;11.160;2023-04-24T04:22:25;9.00;99.90
5705;DHT22;2877;48.238;11.160;2023-04-24T04:24:50;9.00;99.90
5705;DHT22;2877;48.238;11.160;2023-04-24T04:27:16;9.00;99.90
5705;DHT22;2877;48.238;11.160;2023-04-24T04:29:44;9.00;99.90
5705;DHT22;2877;48.238;11.160;2023-04-24T04:32:09;9.00;99.90
5705;DHT22;2877;48.238;11.160;2023-04-24T04:34:35;8.90;99.90
5705;DHT22;2877;48.238;11.160;2023-04-24T04:37:03;8.90;99.90
5705;DHT22;2877;48.238;11.160;2023-04-24T04:39:28;8.90;99.90
5705;DHT22;2877;48.238;11.160;2023-04-24T04:41:55;9.00;99.90
5705;DHT22;2877;48.238;11.160;2023-04-24T04:44:20;9.00;99.90
5705;DHT22;2877;48.238;11.160;2023-04-24T04:46:46;9.00;99.90
5705;DHT22;2877;48.238;11.160;2023-04-24T04:49:12;9.00;99.90
5705;DHT22;2877;48.238;11.160;2023-04-24T04:51:38;9.00;99.90
5705;DHT22;2877;48.238;11.160;2023-04-24T04:54:03;8.90;99.90
5705;DHT22;2877;48.238;11.160;2023-04-24T04:56:29;9.00;99.90
5705;DHT22;2877;48.238;11.160;2023-04-24T04:58:55;9.10;99.90
5705;DHT22;2877;48.238;11.160;2023-04-24T05:01:20;9.10;99.90
5705;DHT22;2877;48.238;11.160;2023-04-24T05:03:48;9.10;99.90
5705;DHT22;2877;48.238;11.160;2023-04-24T05:06:13;9.10;99.90
5705;DHT22;2877;48.238;11.160;2023-04-24T05:08:39;9.20;99.90
5705;DHT22;2877;48.238;11.160;2023-04-24T05:11:05;9.30;99.90
5705;DHT22;2877;48.238;11.160;2023-04-24T05:13:31;9.30;99.90
5705;DHT22;2877;48.238;11.160;2023-04-24T05:15:57;9.30;99.90
5705;DHT22;2877;48.238;11.160;2023-04-24T05:18:23;9.40;99.90
5705;DHT22;2877;48.238;11.160;2023-04-24T05:20:49;9.40;99.90
5705;DHT22;2877;48.238;11.160;2023-04-24T05:23:14;9.50;99.90
5705;DHT22;2877;48.238;11.160;2023-04-24T05:25:40;9.40;99.90
5705;DHT22;2877;48.238;11.160;2023-04-24T05:28:06;9.40;99.90
5705;DHT22;2877;48.238;11.160;2023-04-24T05:30:32;9.40;99.90
5705;DHT22;2877;48.238;11.160;2023-04-24T05:32:57;9.40;99.90
5705;DHT22;2877;48.238;11.160;2023-04-24T05:35:23;9.50;99.90
5705;DHT22;2877;48.238;11.160;2023-04-24T05:37:48;9.50;99.90
5705;DHT22;2877;48.238;11.160;2023-04-24T05:40:14;9.60;99.90
5705;DHT22;2877;48.238;11.160;2023-04-24T05:42:39;9.60;99.90
5705;DHT22;2877;48.238;11.160;2023-04-24T05:45:05;9.60;99.90
5705;DHT22;2877;48.238;11.160;2023-04-24T05:47:31;9.60;99.90
5705;DHT22;2877;48.238;11.160;2023-04-24T05:49:57;9.60;99.90
5705;DHT22;2877;48.238;11.160;2023-04-24T05:52:22;9.70;99.90
5705;DHT22;2877;48.238;11.160;2023-04-24T05:54:48;9.70;99.90
5705;DHT22;2877;48.238;11.160;2023-04-24T05:57:13;9.70;99.90
5705;DHT22;2877;48.238;11.160;2023-04-24T05:59:40;9.70;99.90
5705;DHT22;2877;48.238;11.160;2023-04-24T06:02:06;9.70;99.90
5705;DHT22;2877;48.238;11.160;2023-04-24T06:04:32;9.60;99.90
5705;DHT22;2877;48.238;11.160;2023-04-24T06:06:58;9.70;99.90
5705;DHT22;2877;48.238;11.160;2023-04-24T06:09:24;9.60;99.90
5705;DHT22;2877;48.238;11.160;2023-04-24T06:11:50;9.70;99.90
5705;DHT22;2877;48.238;11.160;2023-04-24T06:14:18;9.70;99.90
5705;DHT22;2877;48.238;11.160;2023-04-24T06:16:44;9.90;99.90
5705;DHT22;2877;48.238;11.160;2023-04-24T06:19:09;9.90;99.90
5705;DHT22;2877;48.238;11.160;2023-04-24T06:21:35;9.90;99.90
5705;DHT22;2877;48.238;11.160;2023-04-24T06:24:00;10.00;99.90
5705;DHT22;2877;48.238;11.160;2023-04-24T06:26:27;9.90;99.90
5705;DHT22;2877;48.238;11.160;2023-04-24T06:28:53;10.00;99.90
5705;DHT22;2877;48.238;11.160;2023-04-24T06:31:21;10.10;99.90
5705;DHT22;2877;48.238;11.160;2023-04-24T06:33:48;10.10;99.90
5705;DHT22;2877;48.238;11.160;2023-04-24T06:36:14;10.20;99.90
5705;DHT22;2877;48.238;11.160;2023-04-24T06:38:41;10.20;99.90
5705;DHT22;2877;48.238;11.160;2023-04-24T06:41:06;10.30;99.90
5705;DHT22;2877;48.238;11.160;2023-04-24T06:43:32;10.30;99.90
5705;DHT22;2877;48.238;11.160;2023-04-24T06:45:58;10.40;99.90
5705;DHT22;2877;48.238;11.160;2023-04-24T06:48:24;10.50;99.90
5705;DHT22;2877;48.238;11.160;2023-04-24T06:50:50;10.50;99.90
5705;DHT22;2877;48.238;11.160;2023-04-24T06:53:16;10.50;99.90
5705;DHT22;2877;48.238;11.160;2023-04-24T06:55:42;10.40;99.90
5705;DHT22;2877;48.238;11.160;2023-04-24T06:58:08;10.30;99.90
5705;DHT22;2877;48.238;11.160;2023-04-24T07:00:34;10.40;99.90
5705;DHT22;2877;48.238;11.160;2023-04-24T07:03:00;10.40;99.90
5705;DHT22;2877;48.238;11.160;2023-04-24T07:05:26;10.40;99.90
5705;DHT22;2877;48.238;11.160;2023-04-24T07:07:52;10.40;99.90
5705;DHT22;2877;48.238;11.160;2023-04-24T07:10:18;10.50;99.90
5705;DHT22;2877;48.238;11.160;2023-04-24T07:12:44;10.50;99.90
5705;DHT22;2877;48.238;11.160;2023-04-24T07:15:10;10.50;99.90
5705;DHT22;2877;48.238;11.160;2023-04-24T07:17:35;10.60;99.90
5705;DHT22;2877;48.238;11.160;2023-04-24T07:20:04;10.50;99.90
5705;DHT22;2877;48.238;11.160;2023-04-24T07:22:29;10.60;99.90
5705;DHT22;2877;48.238;11.160;2023-04-24T07:24:55;10.80;99.90
5705;DHT22;2877;48.238;11.160;2023-04-24T07:27:21;10.80;99.90
5705;DHT22;2877;48.238;11.160;2023-04-24T07:29:46;10.90;99.90
5705;DHT22;2877;48.238;11.160;2023-04-24T07:32:12;11.00;99.90
5705;DHT22;2877;48.238;11.160;2023-04-24T07:34:37;11.20;99.90
5705;DHT22;2877;48.238;11.160;2023-04-24T07:37:03;11.30;99.90
5705;DHT22;2877;48.238;11.160;2023-04-24T07:39:29;11.30;99.90
5705;DHT22;2877;48.238;11.160;2023-04-24T07:41:54;11.00;99.90
5705;DHT22;2877;48.238;11.160;2023-04-24T07:44:20;10.80;99.90
5705;DHT22;2877;48.238;11.160;2023-04-24T07:46:45;10.50;99.90
5705;DHT22;2877;48.238;11.160;2023-04-24T07:49:11;10.30;99.90
5705;DHT22;2877;48.238;11.160;2023-04-24T07:51:43;10.30;99.90
5705;DHT22;2877;48.238;11.160;2023-04-24T07:54:08;10.30;99.90
5705;DHT22;2877;48.238;11.160;2023-04-24T07:56:34;10.40;99.90
5705;DHT22;2877;48.238;11.160;2023-04-24T07:59:04;10.40;99.90
5705;DHT22;2877;48.238;11.160;2023-04-24T08:01:29;10.40;99.90
5705;DHT22;2877;48.238;11.160;2023-04-24T08:03:55;10.10;99.90
5705;DHT22;2877;48.238;11.160;2023-04-24T08:06:21;10.10;99.90
5705;DHT22;2877;48.238;11.160;2023-04-24T08:08:47;10.00;99.90
5705;DHT22;2877;48.238;11.160;2023-04-24T08:11:13;9.70;99.90
5705;DHT22;2877;48.238;11.160;2023-04-24T08:13:38;9.70;99.90
5705;DHT22;2877;48.238;11.160;2023-04-24T08:16:04;9.60;99.90
5705;DHT22;2877;48.238;11.160;2023-04-24T08:18:29;9.50;99.90
5705;DHT22;2877;48.238;11.160;2023-04-24T08:20:55;9.60;99.90
5705;DHT22;2877;48.238;11.160;2023-04-24T08:23:21;9.60;99.90
5705;DHT22;2877;48.238;11.160;2023-04-24T08:25:47;9.60;99.90
5705;DHT22;2877;48.238;11.160;2023-04-24T08:28:13;9.70;99.90
5705;DHT22;2877;48.238;11.160;2023-04-24T08:30:45;9.80;99.90
5705;DHT22;2877;48.238;11.160;2023-04-24T08:33:11;10.00;99.90
5705;DHT22;2877;48.238;11.160;2023-04-24T08:35:36;10.00;99.90
5705;DHT22;2877;48.238;11.160;2023-04-24T08:38:02;9.90;99.90
5705;DHT22;2877;48.238;11.160;2023-04-24T08:40:28;9.70;99.90
5705;DHT22;2877;48.238;11.160;2023-04-24T08:42:55;9.40;99.90
5705;DHT22;2877;48.238;11.160;2023-04-24T08:45:24;9.40;99.90
5705;DHT22;2877;48.238;11.160;2023-04-24T08:47:50;9.50;99.90
5705;DHT22;2877;48.238;11.160;2023-04-24T08:50:17;9.90;99.90
5705;DHT22;2877;48.238;11.160;2023-04-24T08:52:43;10.10;99.90
5705;DHT22;2877;48.238;11.160;2023-04-24T08:55:09;10.20;99.90
5705;DHT22;2877;48.238;11.160;2023-04-24T08:57:35;10.40;99.90
5705;DHT22;2877;48.238;11.160;2023-04-24T09:00:04;10.60;99.90
5705;DHT22;2877;48.238;11.160;2023-04-24T09:02:31;10.80;99.90
5705;DHT22;2877;48.238;11.160;2023-04-24T09:04:57;10.90;99.90
5705;DHT22;2877;48.238;11.160;2023-04-24T09:07:25;11.10;99.90
5705;DHT22;2877;48.238;11.160;2023-04-24T09:09:52;11.20;99.90
5705;DHT22;2877;48.238;11.160;2023-04-24T09:12:18;11.40;99.90
5705;DHT22;2877;48.238;11.160;2023-04-24T09:14:44;11.40;99.90
5705;DHT22;2877;48.238;11.160;2023-04-24T09:17:11;11.20;99.90
5705;DHT22;2877;48.238;11.160;2023-04-24T09:19:37;11.20;99.90
5705;DHT22;2877;48.238;11.160;2023-04-24T09:22:09;11.30;99.90
5705;DHT22;2877;48.238;11.160;2023-04-24T09:24:35;11.50;99.90
5705;DHT22;2877;48.238;11.160;2023-04-24T09:27:01;11.70;99.90
5705;DHT22;2877;48.238;11.160;2023-04-24T09:29:27;11.80;99.90
5705;DHT22;2877;48.238;11.160;2023-04-24T09:31:52;12.00;99.90
5705;DHT22;2877;48.238;11.160;2023-04-24T09:34:23;11.60;99.90
5705;DHT22;2877;48.238;11.160;2023-04-24T09:36:49;11.50;99.90
5705;DHT22;2877;48.238;11.160;2023-04-24T09:39:16;11.40;99.90
5705;DHT22;2877;48.238;11.160;2023-04-24T09:41:52;11.50;99.90
5705;DHT22;2877;48.238;11.160;2023-04-24T09:44:19;11.40;99.90
5705;DHT22;2877;48.238;11.160;2023-04-24T09:46:56;11.20;99.90
5705;DHT22;2877;48.238;11.160;2023-04-24T09:49:24;11.30;99.90
5705;DHT22;2877;48.238;11.160;2023-04-24T09:51:50;11.40;99.90
5705;DHT22;2877;48.238;11.160;2023-04-24T09:54:18;11.40;99.90
5705;DHT22;2877;48.238;11.160;2023-04-24T09:56:49;11.60;99.90
5705;DHT22;2877;48.238;11.160;2023-04-24T09:59:18;11.60;99.90
5705;DHT22;2877;48.238;11.160;2023-04-24T10:01:44;11.50;99.90
5705;DHT22;2877;48.238;11.160;2023-04-24T10:04:24;11.90;99.90
5705;DHT22;2877;48.238;11.160;2023-04-24T10:06:51;12.20;99.90
5705;DHT22;2877;48.238;11.160;2023-04-24T10:09:18;12.40;99.90
5705;DHT22;2877;48.238;11.160;2023-04-24T10:11:46;12.60;99.90
5705;DHT22;2877;48.238;11.160;2023-04-24T10:14:13;12.40;99.90
5705;DHT22;2877;48.238;11.160;2023-04-24T10:16:40;12.60;99.90
5705;DHT22;2877;48.238;11.160;2023-04-24T10:19:07;12.50;99.90
5705;DHT22;2877;48.238;11.160;2023-04-24T10:21:33;12.30;99.90
5705;DHT22;2877;48.238;11.160;2023-04-24T10:24:00;11.60;99.90
5705;DHT22;2877;48.238;11.160;2023-04-24T10:26:29;10.50;99.90
5705;DHT22;2877;48.238;11.160;2023-04-24T10:28:57;9.40;99.90
5705;DHT22;2877;48.238;11.160;2023-04-24T10:31:22;8.90;99.90
5705;DHT22;2877;48.238;11.160;2023-04-24T10:33:50;8.80;99.90
5705;DHT22;2877;48.238;11.160;2023-04-24T10:36:17;9.10;99.90
5705;DHT22;2877;48.238;11.160;2023-04-24T10:38:45;9.20;99.90
5705;DHT22;2877;48.238;11.160;2023-04-24T10:41:13;9.50;99.90
5705;DHT22;2877;48.238;11.160;2023-04-24T10:43:45;9.90;99.90
5705;DHT22;2877;48.238;11.160;2023-04-24T10:46:18;10.20;99.90
5705;DHT22;2877;48.238;11.160;2023-04-24T10:48:52;10.20;99.90
5705;DHT22;2877;48.238;11.160;2023-04-24T10:51:26;10.20;99.90
5705;DHT22;2877;48.238;11.160;2023-04-24T10:54:28;10.20;99.90
5705;DHT22;2877;48.238;11.160;2023-04-24T10:57:34;10.10;99.90
5705;DHT22;2877;48.238;11.160;2023-04-24T11:00:18;9.50;99.90
5705;DHT22;2877;48.238;11.160;2023-04-24T11:02:46;9.20;99.90
5705;DHT22;2877;48.238;11.160;2023-04-24T11:05:18;9.40;99.90
5705;DHT22;2877;48.238;11.160;2023-04-24T11:08:14;9.70;99.90
5705;DHT22;2877;48.238;11.160;2023-04-24T11:13:31;9.80;99.90
5705;DHT22;2877;48.238;11.160;2023-04-24T11:26:51;11.70;99.90
5705;DHT22;2877;48.238;11.160;2023-04-24T11:29:19;12.10;99.90
5705;DHT22;2877;48.238;11.160;2023-04-24T11:31:46;12.10;99.90
5705;DHT22;2877;48.238;11.160;2023-04-24T11:34:17;12.50;99.90
5705;DHT22;2877;48.238;11.160;2023-04-24T11:36:46;12.40;99.90
5705;DHT22;2877;48.238;11.160;2023-04-24T11:39:15;12.30;99.90
5705;DHT22;2877;48.238;11.160;2023-04-24T11:41:40;12.10;99.90
5705;DHT22;2877;48.238;11.160;2023-04-24T11:44:07;12.20;99.90
5705;DHT22;2877;48.238;11.160;2023-04-24T11:46:33;12.40;99.90
5705;DHT22;2877;48.238;11.160;2023-04-24T11:48:59;12.20;99.90
5705;DHT22;2877;48.238;11.160;2023-04-24T11:51:26;12.20;99.90
5705;DHT22;2877;48.238;11.160;2023-04-24T11:53:53;12.50;99.90
5705;DHT22;2877;48.238;11.160;2023-04-24T11:56:20;12.70;99.90
5705;DHT22;2877;48.238;11.160;2023-04-24T11:58:46;12.70;99.90
5705;DHT22;2877;48.238;11.160;2023-04-24T12:01:12;12.80;99.90
5705;DHT22;2877;48.238;11.160;2023-04-24T12:03:37;13.10;99.90
5705;DHT22;2877;48.238;11.160;2023-04-24T12:06:09;13.30;99.90
5705;DHT22;2877;48.238;11.160;2023-04-24T12:08:36;13.40;99.90
5705;DHT22;2877;48.238;11.160;2023-04-24T12:11:05;13.50;99.90
5705;DHT22;2877;48.238;11.160;2023-04-24T12:13:35;13.80;99.90
5705;DHT22;2877;48.238;11.160;2023-04-24T12:16:04;14.10;99.90
5705;DHT22;2877;48.238;11.160;2023-04-24T12:18:31;14.50;99.90
5705;DHT22;2877;48.238;11.160;2023-04-24T12:21:21;14.90;99.90
5705;DHT22;2877;48.238;11.160;2023-04-24T12:23:47;13.80;98.00
5705;DHT22;2877;48.238;11.160;2023-04-24T12:26:17;13.10;99.00
5705;DHT22;2877;48.238;11.160;2023-04-24T12:28:46;12.80;99.40
5705;DHT22;2877;48.238;11.160;2023-04-24T12:31:12;12.60;99.90
5705;DHT22;2877;48.238;11.160;2023-04-24T12:33:38;12.30;99.50
5705;DHT22;2877;48.238;11.160;2023-04-24T12:36:04;12.00;99.00
5705;DHT22;2877;48.238;11.160;2023-04-24T12:38:30;11.90;99.30
5705;DHT22;2877;48.238;11.160;2023-04-24T12:41:04;11.80;99.90
5705;DHT22;2877;48.238;11.160;2023-04-24T12:43:30;11.80;99.90
5705;DHT22;2877;48.238;11.160;2023-04-24T12:45:56;11.80;99.90
5705;DHT22;2877;48.238;11.160;2023-04-24T12:48:22;12.40;98.40
5705;DHT22;2877;48.238;11.160;2023-04-24T12:50:48;13.40;96.60
5705;DHT22;2877;48.238;11.160;2023-04-24T12:53:14;13.60;93.80
5705;DHT22;2877;48.238;11.160;2023-04-24T12:55:40;13.80;93.10
5705;DHT22;2877;48.238;11.160;2023-04-24T12:58:06;14.20;91.00
5705;DHT22;2877;48.238;11.160;2023-04-24T13:00:32;14.40;90.70
5705;DHT22;2877;48.238;11.160;2023-04-24T13:02:58;14.90;90.20
5705;DHT22;2877;48.238;11.160;2023-04-24T13:05:23;15.00;85.30
5705;DHT22;2877;48.238;11.160;2023-04-24T13:07:49;14.90;87.90
5705;DHT22;2877;48.238;11.160;2023-04-24T13:10:14;14.40;89.90
5705;DHT22;2877;48.238;11.160;2023-04-24T13:12:40;14.40;90.40
5705;DHT22;2877;48.238;11.160;2023-04-24T13:15:07;15.20;80.40
5705;DHT22;2877;48.238;11.160;2023-04-24T13:17:32;15.00;80.90
5705;DHT22;2877;48.238;11.160;2023-04-24T13:19:58;15.20;78.00
5705;DHT22;2877;48.238;11.160;2023-04-24T13:22:24;14.40;81.80
5705;DHT22;2877;48.238;11.160;2023-04-24T13:24:50;13.90;83.80
5705;DHT22;2877;48.238;11.160;2023-04-24T13:27:16;13.90;83.60
5705;DHT22;2877;48.238;11.160;2023-04-24T13:29:41;14.30;83.80
5705;DHT22;2877;48.238;11.160;2023-04-24T13:32:08;14.60;86.30
5705;DHT22;2877;48.238;11.160;2023-04-24T13:34:34;13.90;90.00
5705;DHT22;2877;48.238;11.160;2023-04-24T13:37:03;13.50;90.00
5705;DHT22;2877;48.238;11.160;2023-04-24T13:39:31;12.80;89.70
5705;DHT22;2877;48.238;11.160;2023-04-24T13:41:57;12.60;91.40
5705;DHT22;2877;48.238;11.160;2023-04-24T13:44:23;12.90;91.50
5705;DHT22;2877;48.238;11.160;2023-04-24T13:46:51;12.90;90.30
5705;DHT22;2877;48.238;11.160;2023-04-24T13:49:19;12.60;89.30
5705;DHT22;2877;48.238;11.160;2023-04-24T13:51:45;12.60;87.10
5705;DHT22;2877;48.238;11.160;2023-04-24T13:54:11;12.70;89.30
5705;DHT22;2877;48.238;11.160;2023-04-24T13:56:37;13.10;88.40
5705;DHT22;2877;48.238;11.160;2023-04-24T13:59:02;13.30;87.50
5705;DHT22;2877;48.238;11.160;2023-04-24T14:01:28;13.10;85.50
5705;DHT22;2877;48.238;11.160;2023-04-24T14:03:54;12.90;89.20
5705;DHT22;2877;48.238;11.160;2023-04-24T14:06:20;12.70;87.80
5705;DHT22;2877;48.238;11.160;2023-04-24T14:08:47;12.80;84.80
5705;DHT22;2877;48.238;11.160;2023-04-24T14:11:13;12.80;84.30
5705;DHT22;2877;48.238;11.160;2023-04-24T14:13:40;12.70;83.30
5705;DHT22;2877;48.238;11.160;2023-04-24T14:16:06;12.60;86.90
5705;DHT22;2877;48.238;11.160;2023-04-24T14:18:31;12.60;84.60
5705;DHT22;2877;48.238;11.160;2023-04-24T14:20:57;12.30;83.80
5705;DHT22;2877;48.238;11.160;2023-04-24T14:23:23;12.30;83.90
5705;DHT22;2877;48.238;11.160;2023-04-24T14:25:49;12.40;81.90
5705;DHT22;2877;48.238;11.160;2023-04-24T14:28:18;12.50;82.20
5705;DHT22;2877;48.238;11.160;2023-04-24T14:30:43;12.80;81.10
5705;DHT22;2877;48.238;11.160;2023-04-24T14:33:09;13.10;78.60
5705;DHT22;2877;48.238;11.160;2023-04-24T14:35:35;13.20;81.10
5705;DHT22;2877;48.238;11.160;2023-04-24T14:38:01;13.10;80.70
5705;DHT22;2877;48.238;11.160;2023-04-24T14:40:27;13.20;80.00
5705;DHT22;2877;48.238;11.160;2023-04-24T14:42:52;13.10;80.50
5705;DHT22;2877;48.238;11.160;2023-04-24T14:45:18;13.00;82.50
5705;DHT22;2877;48.238;11.160;2023-04-24T14:47:44;12.90;82.10
5705;DHT22;2877;48.238;11.160;2023-04-24T14:50:10;12.80;82.20
5705;DHT22;2877;48.238;11.160;2023-04-24T14:52:38;12.60;80.80
5705;DHT22;2877;48.238;11.160;2023-04-24T14:55:04;12.60;81.00
5705;DHT22;2877;48.238;11.160;2023-04-24T14:57:29;12.60;79.60
5705;DHT22;2877;48.238;11.160;2023-04-24T14:59:55;12.40;77.30
5705;DHT22;2877;48.238;11.160;2023-04-24T15:02:21;12.40;79.60
5705;DHT22;2877;48.238;11.160;2023-04-24T15:04:46;12.40;76.20
5705;DHT22;2877;48.238;11.160;2023-04-24T15:07:12;12.30;80.00
5705;DHT22;2877;48.238;11.160;2023-04-24T15:09:37;12.60;79.40
5705;DHT22;2877;48.238;11.160;2023-04-24T15:12:03;12.70;77.70
5705;DHT22;2877;48.238;11.160;2023-04-24T15:14:28;12.50;74.20
5705;DHT22;2877;48.238;11.160;2023-04-24T15:16:54;12.70;77.70
5705;DHT22;2877;48.238;11.160;2023-04-24T15:19:20;12.80;75.50
5705;DHT22;2877;48.238;11.160;2023-04-24T15:21:46;12.80;75.30
5705;DHT22;2877;48.238;11.160;2023-04-24T15:24:11;12.80;75.50
5705;DHT22;2877;48.238;11.160;2023-04-24T15:26:37;12.50;76.10
5705;DHT22;2877;48.238;11.160;2023-04-24T15:29:02;12.30;79.70
5705;DHT22;2877;48.238;11.160;2023-04-24T15:31:28;12.20;79.80
5705;DHT22;2877;48.238;11.160;2023-04-24T15:33:53;12.30;81.80
5705;DHT22;2877;48.238;11.160;2023-04-24T15:36:19;12.50;83.00
5705;DHT22;2877;48.238;11.160;2023-04-24T15:38:46;12.40;82.40
5705;DHT22;2877;48.238;11.160;2023-04-24T15:41:12;12.30;81.50
5705;DHT22;2877;48.238;11.160;2023-04-24T15:43:38;12.20;80.70
5705;DHT22;2877;48.238;11.160;2023-04-24T15:46:04;12.20;81.50
5705;DHT22;2877;48.238;11.160;2023-04-24T15:48:30;12.10;82.50
5705;DHT22;2877;48.238;11.160;2023-04-24T15:50:56;11.80;80.90
5705;DHT22;2877;48.238;11.160;2023-04-24T15:53:22;11.60;80.90
5705;DHT22;2877;48.238;11.160;2023-04-24T15:55:51;11.50;82.70
5705;DHT22;2877;48.238;11.160;2023-04-24T15:58:18;11.40;82.00
5705;DHT22;2877;48.238;11.160;2023-04-24T16:00:44;11.30;80.70
5705;DHT22;2877;48.238;11.160;2023-04-24T16:03:11;11.30;79.80